Lubbock Preston Smith International Airport
KLBB : rendu visible

Aérodrome :











RETROUVEZ-NOUS SUR...

 
LOGIN :

S'inscrire | Disclaimer

   EN    FR    IT 

 









Légende :    VFR   VFR Marginal   IFR   IFR Intensif   IFR Très Intensif
Visi : 
Plafond : 
>= 8 km
>= 3000ft
5 à 8 km
1000 à 3000 ft
1500m à 5 km
500 à 1000 ft
800 à 1500m
200 à 500 ft
< 800m
< 200 ft
Symboles :   Orages  Brouillard  Fortes neiges  Fortes précipitations  Vent > 20 kt






- Altitude de l'aérodrome : 3282 ft
- Code IATA : LBB


KLBB - Lubbock Preston Smith International

DERNIER METAR :
  • 222253Z 18005KT 10SM FEW034 FEW250 09/03 A3003 RMK AO2 SLP158 T00940033

METARs EXPIRÉS :
  • 222209Z 22005KT 10SM FEW024 09/03 A3003 RMK AO2 T00940028
  • 222200Z 19005KT 9SM BKN024 09/03 A3003 RMK AO2 T00940028
  • 222153Z 00000KT 9SM SCT024 SCT250 09/03 A3004 RMK AO2 SLP162 T00890028
  • 222053Z 23007KT 10SM OVC019 08/03 A3006 RMK AO2 SLP171 T00830028 56027

TAF KLBB
Valide du 22 à 22h jusqu'au 23 à 18h UTC


222159Z 2222/2318 VRB05KT P6SM SCT020
FM230600 18005KT 5SM BR OVC005
FM231500 33011KT P6SM SKC



MET'MAP, la Météo Aéronautique d'un coup d'oeil ! - Copyright ORBIFLY Décembre 2007 - Disclaimer

ORBIFLY MET'MAP TEAM :

Programmation & Développement : Alexandra Zaïnal
Conception & Développement : Baudouin d'Aumeries
Co-Programmation & Développement : Marc-Olivier Méhu
Soutien technique & logistique : Manuel Goepfert

Contact : metmap@orbifly.com




SOURCES & CREDITS :

   NOAA       Earth
Advisory